Time;durP1;ratioP1;P1;durP2;ratioP2;P2;SDS_P1;SDS_P2;PMS_P1;PMS_P2;Temp;Humidity;BMP_temperature;BMP_pressure;BME280_temperature;BME280_humidity;BME280_pressure;Samples;Min_cycle;Max_cycle;Signal;HPM_P1;HPM_P2
2023/06/25 00:01:50;;;;;;;70.40;10.37;;;20.50;42.10;;;;;;5060306;28;20821;-82
2023/06/25 00:04:16;;;;;;;70.23;11.67;;;20.60;40.70;;;;;;5060219;28;20165;-82
2023/06/25 00:06:42;;;;;;;73.97;16.90;;;20.50;46.80;;;;;;5059790;28;20196;-82
2023/06/25 00:09:07;;;;;;;71.80;15.60;;;20.40;52.10;;;;;;5060029;28;20165;-82
2023/06/25 00:11:33;;;;;;;73.77;15.80;;;20.30;55.90;;;;;;5059995;28;20168;-82
2023/06/25 00:13:58;;;;;;;72.67;17.97;;;20.20;60.50;;;;;;5059692;28;20157;-82
2023/06/25 00:16:25;;;;;;;72.00;16.30;;;20.20;58.40;;;;;;5060039;28;20219;-82
2023/06/25 00:18:51;;;;;;;73.20;16.83;;;20.10;65.00;;;;;;5059325;28;20253;-82
2023/06/25 00:21:16;;;;;;;73.00;15.43;;;20.20;65.10;;;;;;5059968;28;20434;-82
2023/06/25 00:23:42;;;;;;;75.70;13.90;;;20.10;62.00;;;;;;5059149;28;20648;-82
2023/06/25 00:26:08;;;;;;;76.00;16.60;;;20.10;61.20;;;;;;5058678;28;20184;-82
2023/06/25 00:28:33;;;;;;;72.40;14.07;;;20.00;66.60;;;;;;5059711;28;20244;-82
2023/06/25 00:30:59;;;;;;;74.37;13.50;;;20.10;59.40;;;;;;5059017;28;20165;-82
2023/06/25 00:33:24;;;;;;;73.13;17.00;;;20.10;57.40;;;;;;5058300;28;20203;-82
2023/06/25 00:35:50;;;;;;;73.00;19.00;;;19.90;64.30;;;;;;5059062;28;20164;-82
2023/06/25 00:38:16;;;;;;;74.80;22.90;;;19.80;74.80;;;;;;5057622;28;20197;-82
2023/06/25 00:40:43;;;;;;;75.57;21.27;;;19.70;81.30;;;;;;5058782;28;20278;-82
2023/06/25 00:43:09;;;;;;;73.20;18.43;;;19.70;81.20;;;;;;5058849;28;20421;-82
2023/06/25 00:45:35;;;;;;;72.43;15.80;;;19.80;74.50;;;;;;5058901;28;20450;-82
2023/06/25 00:48:01;;;;;;;72.63;17.27;;;20.00;66.50;;;;;;5058730;28;20290;-82
2023/06/25 00:50:27;;;;;;;73.27;20.73;;;19.80;74.20;;;;;;5057412;28;20172;-82
2023/06/25 00:52:54;;;;;;;75.17;16.00;;;19.70;82.40;;;;;;5058442;28;20766;-82
2023/06/25 00:55:22;;;;;;;72.37;17.93;;;19.70;78.90;;;;;;5058984;28;20410;-82
2023/06/25 00:57:48;;;;;;;70.20;14.50;;;19.50;83.20;;;;;;5058295;28;20424;-82
2023/06/25 01:00:14;;;;;;;78.90;17.77;;;19.50;85.60;;;;;;5058390;28;20899;-82
2023/06/25 01:03:07;;;;;;;74.20;17.10;;;19.50;84.80;;;;;;5135235;22;20169;-83
2023/06/25 01:05:48;;;;;;;73.73;19.63;;;19.50;86.70;;;;;;5045862;28;20500;-83
2023/06/25 01:08:16;;;;;;;71.17;12.47;;;19.40;90.10;;;;;;5057975;28;20425;-83
2023/06/25 01:10:43;;;;;;;70.40;12.30;;;19.50;82.30;;;;;;5058286;28;20407;-83
2023/06/25 01:13:09;;;;;;;71.07;12.57;;;19.60;78.10;;;;;;5057681;28;20403;-83
2023/06/25 01:15:35;;;;;;;71.10;12.93;;;19.60;78.20;;;;;;5057455;28;20408;-82
2023/06/25 01:18:01;;;;;;;72.90;13.80;;;19.50;80.30;;;;;;5038095;28;20431;-82
2023/06/25 01:20:27;;;;;;;73.43;14.10;;;19.60;76.90;;;;;;5037559;28;20423;-82
2023/06/25 01:22:57;;;;;;;70.90;14.07;;;19.50;82.40;;;;;;5037270;28;20413;-81
2023/06/25 01:25:24;;;;;;;73.83;18.60;;;19.50;85.80;;;;;;5055212;28;20554;-82
2023/06/25 01:27:50;;;;;;;75.20;17.97;;;19.30;92.90;;;;;;5055221;28;20427;-83
2023/06/25 01:30:17;;;;;;;74.70;18.07;;;19.30;92.40;;;;;;5037126;28;20439;-82
2023/06/25 01:32:44;;;;;;;73.50;18.70;;;19.20;90.50;;;;;;5037126;28;20494;-82
2023/06/25 01:35:14;;;;;;;71.70;17.43;;;19.20;93.80;;;;;;5037271;28;20427;-82
2023/06/25 01:37:40;;;;;;;71.97;15.57;;;19.10;95.50;;;;;;5055183;28;20448;-82
2023/06/25 01:40:09;;;;;;;71.70;15.27;;;19.10;96.50;;;;;;5037275;28;20410;-82
2023/06/25 01:42:36;;;;;;;70.87;12.60;;;19.20;92.30;;;;;;5058385;28;20163;-82
2023/06/25 01:45:02;;;;;;;76.93;14.50;;;19.20;89.60;;;;;;5058644;28;20491;-81
2023/06/25 01:47:28;;;;;;;72.97;15.83;;;19.10;91.50;;;;;;5058838;28;20502;-82
2023/06/25 01:49:54;;;;;;;75.67;15.67;;;19.00;93.90;;;;;;5040705;28;20837;-81
2023/06/25 01:52:19;;;;;;;77.50;11.90;;;19.10;94.50;;;;;;5058761;28;20561;-82
2023/06/25 01:54:46;;;;;;;70.33;12.73;;;19.20;90.00;;;;;;5058461;28;20337;-82
2023/06/25 01:57:12;;;;;;;71.70;13.90;;;19.10;93.50;;;;;;5058668;28;20602;-81
2023/06/25 01:59:37;;;;;;;72.57;12.70;;;19.10;94.20;;;;;;5058398;28;20407;-82
2023/06/25 02:02:03;;;;;;;72.47;13.13;;;19.10;93.60;;;;;;5040531;28;20485;-81
2023/06/25 02:04:29;;;;;;;73.20;13.20;;;19.00;94.90;;;;;;5057987;28;20181;-82
2023/06/25 02:06:55;;;;;;;71.47;11.27;;;19.00;95.40;;;;;;5057769;28;20442;-81
2023/06/25 02:09:21;;;;;;;70.83;10.73;;;19.00;94.90;;;;;;5058064;28;20241;-82
2023/06/25 02:11:47;;;;;;;69.60;10.57;;;19.00;90.80;;;;;;5057994;28;20203;-82
2023/06/25 02:14:12;;;;;;;69.50;9.63;;;19.00;91.20;;;;;;5058322;28;20411;-81
2023/06/25 02:16:38;;;;;;;69.23;9.30;;;19.10;91.90;;;;;;5039805;28;20176;-81
2023/06/25 02:19:04;;;;;;;71.27;10.33;;;19.10;87.50;;;;;;5040192;28;20194;-81
2023/06/25 02:21:29;;;;;;;70.27;11.20;;;19.10;86.00;;;;;;5039882;28;20173;-82
2023/06/25 02:23:55;;;;;;;72.20;10.17;;;19.00;87.60;;;;;;5057612;28;20179;-82
2023/06/25 02:26:23;;;;;;;71.30;10.67;;;18.90;91.00;;;;;;5039612;28;20197;-82
2023/06/25 02:28:49;;;;;;;69.67;9.43;;;19.10;84.30;;;;;;5057380;28;20233;-82
2023/06/25 02:31:14;;;;;;;70.60;8.77;;;19.10;80.20;;;;;;5057576;28;20398;-82
2023/06/25 02:33:40;;;;;;;70.73;9.63;;;19.00;79.90;;;;;;5057693;28;20168;-81
2023/06/25 02:36:06;;;;;;;69.47;10.43;;;19.00;77.70;;;;;;5039574;28;20904;-82
2023/06/25 02:38:32;;;;;;;70.60;9.80;;;18.90;78.60;;;;;;5059206;28;20426;-82
2023/06/25 02:40:58;;;;;;;70.57;10.00;;;18.90;79.80;;;;;;5060603;28;20399;-83
2023/06/25 02:43:23;;;;;;;68.80;8.90;;;18.90;84.70;;;;;;5060182;28;20244;-82
2023/06/25 02:45:49;;;;;;;68.40;8.80;;;18.80;85.40;;;;;;5060609;28;20193;-83
2023/06/25 02:48:15;;;;;;;70.60;11.27;;;18.80;87.70;;;;;;5059882;28;20181;-83
2023/06/25 02:50:40;;;;;;;69.73;9.37;;;18.60;90.90;;;;;;5059724;28;20167;-83
2023/06/25 02:53:06;;;;;;;69.07;10.27;;;18.70;90.60;;;;;;5058886;28;20173;-83
2023/06/25 02:55:32;;;;;;;72.30;10.97;;;18.60;92.70;;;;;;5059873;28;20160;-83
2023/06/25 02:57:57;;;;;;;73.17;10.50;;;18.70;92.10;;;;;;5059402;28;20191;-83
2023/06/25 03:00:23;;;;;;;68.13;9.00;;;18.90;82.50;;;;;;5059867;28;20178;-83
2023/06/25 03:02:49;;;;;;;70.07;10.67;;;18.70;90.10;;;;;;5059360;28;20168;-83
2023/06/25 03:05:14;;;;;;;71.30;12.37;;;18.60;92.80;;;;;;5060238;28;20163;-83
2023/06/25 03:07:55;;;;;;;72.70;11.60;;;18.60;94.20;;;;;;5060314;28;20188;-83
2023/06/25 03:10:25;;;;;;;70.20;10.80;;;18.70;92.90;;;;;;5060231;28;20184;-83
2023/06/25 03:12:51;;;;;;;70.03;10.70;;;18.70;92.80;;;;;;5060045;28;20414;-83
2023/06/25 03:15:19;;;;;;;70.50;10.07;;;18.70;92.00;;;;;;5060375;28;20417;-83
2023/06/25 03:17:46;;;;;;;71.40;10.50;;;18.70;91.20;;;;;;5041732;28;20198;-83
2023/06/25 03:20:12;;;;;;;71.40;10.10;;;18.60;94.40;;;;;;5060117;28;20417;-83
2023/06/25 03:22:38;;;;;;;71.80;11.60;;;18.70;94.10;;;;;;5060456;28;20434;-83
2023/06/25 03:25:04;;;;;;;71.10;12.70;;;18.60;93.90;;;;;;5059461;28;20417;-83
2023/06/25 03:27:33;;;;;;;74.90;13.43;;;18.70;95.00;;;;;;5059525;28;20425;-83
2023/06/25 03:29:58;;;;;;;70.87;10.00;;;18.70;95.20;;;;;;5060037;28;20433;-83
2023/06/25 03:32:24;;;;;;;69.77;10.63;;;18.70;96.20;;;;;;5041648;28;20412;-83
2023/06/25 03:34:50;;;;;;;73.20;11.00;;;18.60;98.70;;;;;;5059792;28;20175;-83
2023/06/25 03:37:15;;;;;;;71.50;10.83;;;18.60;96.40;;;;;;5059610;28;20181;-83
2023/06/25 03:39:41;;;;;;;73.87;12.50;;;18.60;96.90;;;;;;5059324;28;20177;-83
2023/06/25 03:42:07;;;;;;;70.80;10.90;;;18.60;96.90;;;;;;5059137;28;20229;-83
2023/06/25 03:44:32;;;;;;;73.23;11.63;;;18.50;98.30;;;;;;5042244;28;20701;-83
2023/06/25 03:46:58;;;;;;;74.33;11.50;;;18.60;98.10;;;;;;5058581;28;20197;-83
2023/06/25 03:49:24;;;;;;;70.00;9.57;;;18.60;99.80;;;;;;5059022;28;20196;-83
2023/06/25 03:51:50;;;;;;;78.73;9.50;;;18.60;99.80;;;;;;5040488;28;20430;-83
2023/06/25 03:54:15;;;;;;;71.30;10.67;;;18.50;99.90;;;;;;5040228;28;20177;-83
2023/06/25 03:56:41;;;;;;;69.77;9.50;;;18.50;99.90;;;;;;5058587;28;20210;-82
2023/06/25 03:59:07;;;;;;;70.73;10.10;;;18.50;99.90;;;;;;5058079;28;20177;-81
2023/06/25 04:01:33;;;;;;;70.90;10.00;;;18.60;99.90;;;;;;5056483;28;20174;-82
2023/06/25 04:03:59;;;;;;;71.37;9.20;;;18.60;99.90;;;;;;5038407;28;20260;-82
2023/06/25 04:06:24;;;;;;;70.80;9.57;;;18.50;99.90;;;;;;5056708;28;20882;-82
2023/06/25 04:08:50;;;;;;;72.27;8.70;;;18.50;99.90;;;;;;5056513;28;20660;-82
2023/06/25 04:11:16;;;;;;;72.57;10.00;;;18.50;99.90;;;;;;5038232;28;20172;-82
2023/06/25 04:13:41;;;;;;;71.73;12.03;;;18.50;99.90;;;;;;5056143;28;20169;-82
2023/06/25 04:16:10;;;;;;;70.73;10.70;;;18.70;98.50;;;;;;5056430;28;20230;-81
2023/06/25 04:18:38;;;;;;;70.83;11.00;;;18.60;98.50;;;;;;5038169;28;20191;-82
2023/06/25 04:21:04;;;;;;;70.27;10.30;;;18.70;98.50;;;;;;5056415;28;20413;-82
2023/06/25 04:23:30;;;;;;;69.67;8.70;;;18.70;98.90;;;;;;5038498;28;20426;-82
2023/06/25 04:25:56;;;;;;;69.43;9.60;;;18.60;99.90;;;;;;5055991;28;20454;-81
2023/06/25 04:28:21;;;;;;;75.67;8.93;;;18.70;99.90;;;;;;5056850;28;20181;-82
2023/06/25 04:30:47;;;;;;;71.63;9.47;;;18.60;99.90;;;;;;5055756;28;20167;-82
2023/06/25 04:33:13;;;;;;;72.30;10.73;;;18.80;99.90;;;;;;5056308;28;20634;-82
2023/06/25 04:35:38;;;;;;;71.73;14.00;;;19.00;99.90;;;;;;5055659;28;20171;-82
2023/06/25 04:38:04;;;;;;;72.67;15.30;;;19.30;99.90;;;;;;5038548;28;20206;-82
2023/06/25 04:40:30;;;;;;;72.27;11.77;;;19.60;97.50;;;;;;5055453;28;20171;-82
2023/06/25 04:42:56;;;;;;;71.10;8.53;;;20.20;91.60;;;;;;5037662;28;20208;-81
2023/06/25 04:45:22;;;;;;;73.77;8.80;;;20.70;78.10;;;;;;5055974;28;20451;-83
2023/06/25 04:47:47;;;;;;;71.50;7.97;;;21.00;55.30;;;;;;5038501;28;20184;-81
2023/06/25 04:50:13;;;;;;;74.93;8.20;;;21.30;48.90;;;;;;5038111;28;20415;-82
2023/06/25 04:52:39;;;;;;;71.80;7.20;;;21.40;34.50;;;;;;5055187;28;20283;-82
2023/06/25 04:55:05;;;;;;;72.30;7.00;;;21.70;34.80;;;;;;5055527;28;20243;-82
2023/06/25 04:57:31;;;;;;;70.27;7.67;;;21.90;28.10;;;;;;5037766;28;20188;-81
2023/06/25 04:59:57;;;;;;;73.07;8.03;;;22.20;21.10;;;;;;5037343;28;20945;-81
2023/06/25 05:02:23;;;;;;;70.33;7.63;;;22.50;15.50;;;;;;5055300;28;20169;-82
2023/06/25 05:04:48;;;;;;;71.10;8.90;;;22.70;5.40;;;;;;5055913;28;20184;-82
2023/06/25 05:07:14;;;;;;;71.07;7.70;;;22.90;5.70;;;;;;5055736;28;20196;-82
2023/06/25 05:09:40;;;;;;;71.27;7.60;;;23.00;1.00;;;;;;5054902;28;20736;-81
2023/06/25 05:12:05;;;;;;;71.37;7.87;;;23.10;1.00;;;;;;5055695;28;20208;-81
2023/06/25 05:14:31;;;;;;;75.10;7.47;;;23.10;1.00;;;;;;5055238;28;20203;-82
2023/06/25 05:16:57;;;;;;;71.03;6.73;;;22.90;1.00;;;;;;5058456;28;20438;-82
2023/06/25 05:19:23;;;;;;;73.60;7.70;;;22.80;1.00;;;;;;5058932;28;20197;-81
2023/06/25 05:21:48;;;;;;;76.03;8.00;;;22.70;1.00;;;;;;5059278;28;20164;-81
2023/06/25 05:24:14;;;;;;;73.50;8.10;;;22.40;2.30;;;;;;5059623;28;20462;-81
2023/06/25 05:26:40;;;;;;;73.00;8.93;;;22.20;7.00;;;;;;5058720;28;20193;-81
2023/06/25 05:29:05;;;;;;;72.33;8.83;;;22.20;11.50;;;;;;5059247;28;20192;-82
2023/06/25 05:31:31;;;;;;;71.57;8.97;;;22.30;11.60;;;;;;5059077;28;20165;-82
2023/06/25 05:33:57;;;;;;;71.50;8.83;;;22.30;10.80;;;;;;5058903;28;20230;-82
2023/06/25 05:36:23;;;;;;;74.67;8.77;;;22.30;13.60;;;;;;5059068;28;20177;-80
2023/06/25 05:38:48;;;;;;;71.50;8.93;;;22.20;21.90;;;;;;5040865;28;20200;-82
2023/06/25 05:41:14;;;;;;;76.13;9.90;;;22.00;29.00;;;;;;5058757;28;20403;-81
2023/06/25 05:43:40;;;;;;;75.97;11.07;;;21.90;34.90;;;;;;5041007;28;20294;-81
2023/06/25 05:46:11;;;;;;;76.40;10.23;;;21.80;37.00;;;;;;5059199;28;20192;-81
2023/06/25 05:48:38;;;;;;;72.47;9.27;;;21.70;43.40;;;;;;5059315;28;20560;-81
2023/06/25 05:51:04;;;;;;;75.37;10.20;;;21.70;46.20;;;;;;5058921;28;20463;-81
2023/06/25 05:53:38;;;;;;;74.83;10.33;;;21.70;47.00;;;;;;5040837;28;20411;-81
2023/06/25 05:56:04;;;;;;;74.20;11.10;;;21.70;44.80;;;;;;5041475;28;20251;-81
2023/06/25 05:58:30;;;;;;;74.60;9.37;;;21.70;48.20;;;;;;5059135;28;20427;-82
2023/06/25 06:00:55;;;;;;;73.60;9.33;;;21.90;41.90;;;;;;5058694;28;20414;-80
2023/06/25 06:03:21;;;;;;;73.57;10.67;;;21.90;40.30;;;;;;5058207;28;20188;-80
2023/06/25 06:05:47;;;;;;;71.53;9.30;;;22.00;42.20;;;;;;5059035;28;20196;-80
2023/06/25 06:08:13;;;;;;;73.50;10.37;;;22.00;41.40;;;;;;5058658;28;20706;-80
2023/06/25 06:10:39;;;;;;;71.97;9.57;;;22.10;38.10;;;;;;5040713;28;20168;-81
2023/06/25 06:13:05;;;;;;;72.47;8.77;;;22.10;41.90;;;;;;5058615;28;20436;-80
2023/06/25 06:15:30;;;;;;;74.47;9.57;;;22.10;34.50;;;;;;5057660;28;20403;-80
2023/06/25 06:17:56;;;;;;;73.20;10.03;;;22.10;33.00;;;;;;5058111;28;20246;-80
2023/06/25 06:20:21;;;;;;;73.80;9.93;;;22.20;32.50;;;;;;5058325;28;20176;-80
2023/06/25 06:22:47;;;;;;;73.73;9.53;;;22.20;33.10;;;;;;5058167;28;20221;-81
2023/06/25 06:25:13;;;;;;;78.93;10.80;;;22.30;27.50;;;;;;5040021;28;20263;-80
2023/06/25 06:27:39;;;;;;;72.67;10.40;;;22.20;32.50;;;;;;5057485;28;20194;-80
2023/06/25 06:30:05;;;;;;;74.10;9.37;;;22.30;30.80;;;;;;5057263;28;20188;-81
2023/06/25 06:32:30;;;;;;;72.20;9.70;;;22.30;23.40;;;;;;5039480;28;20188;-81
2023/06/25 06:34:56;;;;;;;73.73;9.40;;;22.30;29.00;;;;;;5057686;28;20430;-81
2023/06/25 06:37:22;;;;;;;72.87;10.40;;;22.40;27.30;;;;;;5039228;28;20251;-80
2023/06/25 06:39:47;;;;;;;71.87;9.97;;;22.50;23.00;;;;;;5057621;28;20169;-81
2023/06/25 06:42:13;;;;;;;73.73;9.63;;;22.60;23.50;;;;;;5057459;28;20176;-81
2023/06/25 06:44:39;;;;;;;71.17;8.30;;;22.60;18.40;;;;;;5057201;28;20172;-79
2023/06/25 06:47:04;;;;;;;75.57;9.20;;;22.60;20.00;;;;;;5057088;28;20203;-80
2023/06/25 06:49:30;;;;;;;73.40;10.37;;;22.70;22.30;;;;;;5057901;28;20584;-80
2023/06/25 06:51:56;;;;;;;78.27;9.33;;;22.80;19.20;;;;;;5039513;28;20176;-81
2023/06/25 06:54:21;;;;;;;72.80;10.70;;;22.80;23.10;;;;;;5057658;28;20160;-80
2023/06/25 06:56:47;;;;;;;75.50;10.40;;;22.90;18.70;;;;;;5057001;28;20168;-80
2023/06/25 06:59:13;;;;;;;73.47;10.43;;;23.00;22.00;;;;;;5057071;28;20264;-79
2023/06/25 07:01:38;;;;;;;73.80;9.87;;;23.10;19.60;;;;;;5057479;28;20165;-80
2023/06/25 07:04:07;;;;;;;72.90;10.47;;;23.20;17.40;;;;;;5083256;22;20224;-82
2023/06/25 07:06:33;;;;;;;71.63;10.17;;;23.20;13.40;;;;;;5081447;28;20271;-82
2023/06/25 07:08:58;;;;;;;72.80;10.43;;;23.30;15.60;;;;;;5082232;28;20544;-82
2023/06/25 07:11:24;;;;;;;72.67;9.37;;;23.30;17.10;;;;;;5082074;28;20161;-82
2023/06/25 07:13:50;;;;;;;73.47;9.87;;;23.30;12.70;;;;;;5082986;28;20215;-82
2023/06/25 07:16:16;;;;;;;72.17;10.00;;;23.40;12.80;;;;;;5063350;28;20180;-82
2023/06/25 07:18:43;;;;;;;72.80;10.57;;;23.50;13.90;;;;;;5082060;28;20322;-82
2023/06/25 07:21:09;;;;;;;72.93;10.20;;;23.50;6.60;;;;;;5064112;28;20414;-82
2023/06/25 07:23:36;;;;;;;72.57;10.67;;;23.50;5.40;;;;;;5082443;28;20406;-82
2023/06/25 07:26:05;;;;;;;73.40;9.43;;;23.60;7.60;;;;;;5082884;28;20478;-82
2023/06/25 07:28:31;;;;;;;73.00;9.97;;;23.60;3.30;;;;;;5082216;28;20418;-82
2023/06/25 07:33:27;;;;;;;71.70;11.03;;;23.70;7.10;;;;;;5458842;22;20481;-82
2023/06/25 07:35:55;;;;;;;74.50;11.43;;;23.70;3.70;;;;;;5229556;22;20490;-82
2023/06/25 07:38:21;;;;;;;74.87;11.07;;;23.80;8.10;;;;;;5082124;28;20414;-82
2023/06/25 07:40:50;;;;;;;72.90;11.70;;;23.90;1.60;;;;;;5064764;28;20417;-82
2023/06/25 07:43:18;;;;;;;75.13;9.37;;;24.00;1.00;;;;;;5082061;28;20156;-82
2023/06/25 07:45:44;;;;;;;73.57;9.70;;;24.10;1.00;;;;;;5065149;28;20449;-83
2023/06/25 07:48:10;;;;;;;75.73;10.20;;;24.20;1.00;;;;;;5142483;22;20494;-80
2023/06/25 07:50:35;;;;;;;73.40;9.00;;;24.30;1.00;;;;;;5076802;28;20257;-80
2023/06/25 07:53:01;;;;;;;71.80;10.17;;;24.40;1.00;;;;;;5076524;28;20162;-81
2023/06/25 07:55:27;;;;;;;75.57;10.20;;;24.40;1.00;;;;;;5077300;28;20173;-80
2023/06/25 07:57:53;;;;;;;74.07;9.80;;;24.50;1.00;;;;;;5076841;28;20181;-80
2023/06/25 08:00:19;;;;;;;71.40;9.03;;;24.60;1.00;;;;;;5076811;28;20390;-81
2023/06/25 08:02:44;;;;;;;72.07;8.80;;;24.60;1.00;;;;;;5076653;28;20416;-80
2023/06/25 08:05:10;;;;;;;71.57;7.90;;;24.70;1.00;;;;;;5076566;28;20164;-80
2023/06/25 08:07:37;;;;;;;71.70;7.43;;;24.90;1.00;;;;;;5076955;28;20192;-80
2023/06/25 08:10:03;;;;;;;76.87;8.00;;;25.00;1.00;;;;;;5076587;28;20427;-81
2023/06/25 08:12:29;;;;;;;70.83;6.87;;;25.00;1.00;;;;;;5058824;28;20411;-80
2023/06/25 08:14:54;;;;;;;70.00;6.53;;;25.10;1.00;;;;;;5077051;28;20510;-81
2023/06/25 08:17:20;;;;;;;69.30;6.57;;;25.20;1.00;;;;;;5059254;28;20198;-80
2023/06/25 08:19:46;;;;;;;69.67;6.67;;;25.30;1.00;;;;;;5059959;28;20170;-81
2023/06/25 08:22:11;;;;;;;70.80;6.70;;;25.30;1.00;;;;;;5077289;28;20254;-81
2023/06/25 08:24:37;;;;;;;70.97;6.80;;;25.50;1.00;;;;;;5077125;28;20162;-81
2023/06/25 08:27:03;;;;;;;69.77;6.23;;;25.60;1.00;;;;;;5077047;28;20194;-81
2023/06/25 08:29:29;;;;;;;69.30;6.30;;;25.60;1.00;;;;;;5077178;28;20171;-81
2023/06/25 08:31:55;;;;;;;71.80;6.90;;;25.60;1.00;;;;;;5077247;28;20747;-80
2023/06/25 08:34:20;;;;;;;71.17;6.60;;;25.70;1.00;;;;;;5077391;28;20423;-81
2023/06/25 08:36:46;;;;;;;70.77;6.50;;;25.80;1.00;;;;;;5058783;28;20264;-81
2023/06/25 08:39:15;;;;;;;72.77;7.63;;;25.80;1.00;;;;;;5059594;28;20624;-81
2023/06/25 08:41:40;;;;;;;69.93;7.60;;;25.90;1.00;;;;;;5077088;28;20203;-81
2023/06/25 08:44:06;;;;;;;71.17;7.73;;;26.00;1.00;;;;;;5077468;28;20407;-81
2023/06/25 08:46:35;;;;;;;74.37;8.20;;;26.10;1.00;;;;;;5076509;28;20227;-80
2023/06/25 08:49:02;;;;;;;74.27;8.70;;;26.20;1.00;;;;;;5058199;28;20187;-81
2023/06/25 08:51:28;;;;;;;71.87;12.73;;;26.30;1.00;;;;;;5079499;28;20424;-81
2023/06/25 08:53:58;;;;;;;76.27;13.33;;;26.30;1.00;;;;;;5061902;28;20417;-80
2023/06/25 08:56:24;;;;;;;76.10;15.40;;;26.40;1.00;;;;;;5080309;28;20516;-80
2023/06/25 08:58:50;;;;;;;75.20;20.37;;;26.50;1.00;;;;;;5080948;28;20449;-80
2023/06/25 09:01:16;;;;;;;74.97;23.33;;;26.60;1.00;;;;;;5062599;28;20172;-80
2023/06/25 09:03:42;;;;;;;73.37;18.63;;;26.70;1.00;;;;;;5062565;28;20172;-81
2023/06/25 09:06:15;;;;;;;78.77;18.40;;;26.80;1.00;;;;;;5062257;28;20242;-81
2023/06/25 09:08:42;;;;;;;73.47;19.27;;;26.90;1.00;;;;;;5062833;28;20480;-81
2023/06/25 09:11:09;;;;;;;74.57;20.07;;;27.00;1.00;;;;;;5080427;28;20812;-81
2023/06/25 09:13:36;;;;;;;76.97;20.73;;;27.10;1.00;;;;;;5062642;28;20420;-81
2023/06/25 09:16:04;;;;;;;74.83;15.10;;;27.30;1.00;;;;;;5080358;28;20432;-81
2023/06/25 09:18:30;;;;;;;71.27;8.90;;;27.40;1.00;;;;;;5080297;28;20430;-81
2023/06/25 09:20:56;;;;;;;71.33;7.03;;;27.40;1.00;;;;;;5062096;28;20410;-81
2023/06/25 09:23:24;;;;;;;70.17;6.70;;;27.50;1.00;;;;;;5062451;28;20408;-81
2023/06/25 09:25:53;;;;;;;71.20;7.43;;;27.60;1.00;;;;;;5061443;28;20226;-81
2023/06/25 09:28:19;;;;;;;72.07;6.00;;;27.70;1.00;;;;;;5060605;28;20434;-81
2023/06/25 09:30:46;;;;;;;70.07;6.57;;;27.80;1.00;;;;;;5060511;28;20781;-81
2023/06/25 09:33:12;;;;;;;70.30;6.63;;;28.00;1.00;;;;;;5061244;28;20433;-81
2023/06/25 09:35:38;;;;;;;70.10;6.70;;;28.20;1.00;;;;;;5079076;28;20768;-81
2023/06/25 09:38:19;;;;;;;70.77;8.57;;;28.30;1.00;;;;;;5078367;28;20425;-83
2023/06/25 09:40:45;;;;;;;70.77;7.50;;;28.50;1.00;;;;;;5061601;28;20463;-80
2023/06/25 09:43:11;;;;;;;70.13;6.70;;;28.50;1.00;;;;;;5079779;28;20417;-81
2023/06/25 09:45:37;;;;;;;71.10;7.40;;;28.60;1.00;;;;;;5061091;28;20663;-81
2023/06/25 09:48:08;;;;;;;71.23;7.07;;;28.70;1.00;;;;;;5061005;28;20544;-81
2023/06/25 09:50:41;;;;;;;72.40;8.20;;;28.70;1.00;;;;;;5079425;28;20191;-81
2023/06/25 09:53:11;;;;;;;72.50;7.03;;;29.00;1.00;;;;;;5078481;28;20418;-81
2023/06/25 09:55:37;;;;;;;74.93;7.83;;;29.20;1.00;;;;;;5078682;28;20394;-81
2023/06/25 09:58:04;;;;;;;71.50;7.10;;;29.30;1.00;;;;;;5078582;28;20444;-81
2023/06/25 10:00:31;;;;;;;71.90;7.37;;;29.30;1.00;;;;;;5060310;28;20179;-81
2023/06/25 10:02:57;;;;;;;72.17;9.70;;;29.60;1.00;;;;;;5060536;28;20457;-81
2023/06/25 10:05:23;;;;;;;71.30;10.23;;;29.60;1.00;;;;;;5078096;28;20402;-81
2023/06/25 10:07:49;;;;;;;73.80;14.70;;;29.90;1.00;;;;;;5059753;28;20488;-81
2023/06/25 10:10:23;;;;;;;72.87;13.60;;;30.00;1.00;;;;;;5077946;28;20751;-81
2023/06/25 10:12:49;;;;;;;74.97;15.57;;;30.10;1.00;;;;;;5078107;28;20164;-81
2023/06/25 10:15:31;;;;;;;75.17;16.87;;;30.30;1.00;;;;;;5061000;28;20742;-81
2023/06/25 10:18:03;;;;;;;75.43;18.67;;;30.60;1.00;;;;;;5059958;28;20531;-81
2023/06/25 10:20:37;;;;;;;75.60;18.70;;;30.70;1.00;;;;;;5078366;28;20440;-81
2023/06/25 10:23:10;;;;;;;75.53;17.23;;;30.80;1.00;;;;;;5059520;28;20460;-81
2023/06/25 10:25:39;;;;;;;73.30;14.30;;;30.80;1.00;;;;;;5077439;28;20446;-82
2023/06/25 10:28:13;;;;;;;75.97;15.57;;;30.70;1.00;;;;;;5059807;28;20571;-81
2023/06/25 10:30:46;;;;;;;74.37;15.97;;;30.80;1.00;;;;;;5059097;28;20758;-81
2023/06/25 10:33:21;;;;;;;73.73;12.77;;;31.00;1.00;;;;;;5059432;28;20459;-81
2023/06/25 10:35:53;;;;;;;73.37;12.70;;;31.50;1.00;;;;;;5059233;28;20394;-82
2023/06/25 10:38:19;;;;;;;74.50;14.20;;;31.50;1.00;;;;;;5058907;28;20472;-81
2023/06/25 10:40:46;;;;;;;72.90;11.17;;;31.40;1.00;;;;;;5059008;28;20479;-81
2023/06/25 10:43:21;;;;;;;76.87;13.63;;;31.60;1.00;;;;;;5077362;28;20164;-81
2023/06/25 10:45:51;;;;;;;72.90;11.50;;;31.90;1.00;;;;;;5058520;28;20460;-81
2023/06/25 10:48:17;;;;;;;72.30;11.80;;;32.00;1.00;;;;;;5058780;28;20469;-81
2023/06/25 10:50:43;;;;;;;72.90;12.90;;;32.20;1.00;;;;;;5058824;28;20460;-81
2023/06/25 10:53:14;;;;;;;73.43;12.70;;;32.20;1.00;;;;;;5058767;28;20406;-82
2023/06/25 10:55:44;;;;;;;73.10;13.13;;;32.50;1.00;;;;;;5077246;28;20167;-82
2023/06/25 10:58:09;;;;;;;73.17;13.87;;;32.60;1.00;;;;;;5078267;28;20419;-82
2023/06/25 11:00:35;;;;;;;72.40;12.93;;;32.30;1.00;;;;;;5080755;28;20950;-82
2023/06/25 11:03:02;;;;;;;73.77;15.33;;;32.20;1.00;;;;;;5062331;28;20164;-82
2023/06/25 11:05:38;;;;;;;74.10;14.87;;;32.30;1.00;;;;;;5061810;28;20419;-82
2023/06/25 11:08:04;;;;;;;75.00;16.03;;;32.60;1.00;;;;;;5061465;28;20438;-83
2023/06/25 11:10:31;;;;;;;75.47;16.00;;;32.20;1.00;;;;;;5079933;28;20405;-82
2023/06/25 11:12:58;;;;;;;74.47;14.30;;;32.30;1.00;;;;;;5078685;28;20485;-82
2023/06/25 11:15:24;;;;;;;74.47;13.03;;;32.50;1.00;;;;;;5061495;28;20456;-82
2023/06/25 11:17:52;;;;;;;75.67;19.60;;;32.60;1.00;;;;;;5079989;28;20422;-82
2023/06/25 11:20:18;;;;;;;75.77;16.50;;;32.80;1.00;;;;;;5061497;28;20167;-82
2023/06/25 11:22:44;;;;;;;74.60;17.07;;;32.80;1.00;;;;;;5061361;28;20398;-82
2023/06/25 11:25:14;;;;;;;76.10;17.23;;;32.80;1.00;;;;;;5079245;28;20430;-82
2023/06/25 11:27:40;;;;;;;75.00;16.23;;;32.90;1.00;;;;;;5061364;28;20509;-82
2023/06/25 11:30:08;;;;;;;74.37;18.30;;;33.30;1.00;;;;;;5078998;28;20443;-82
2023/06/25 11:32:35;;;;;;;76.70;17.67;;;33.30;1.00;;;;;;5061941;28;20428;-82
2023/06/25 11:35:10;;;;;;;74.30;14.50;;;33.40;1.00;;;;;;5079475;28;20426;-82
2023/06/25 11:37:46;;;;;;;77.17;22.70;;;33.30;1.00;;;;;;5079110;28;20417;-82
2023/06/25 11:40:26;;;;;;;74.10;14.83;;;32.70;1.00;;;;;;5078837;28;20382;-82
2023/06/25 11:42:52;;;;;;;74.27;17.53;;;32.60;1.00;;;;;;5060714;28;20398;-82
2023/06/25 11:45:19;;;;;;;74.20;13.60;;;32.80;1.00;;;;;;5078560;28;20481;-82
2023/06/25 11:47:50;;;;;;;74.60;14.23;;;33.20;1.00;;;;;;5060789;28;20450;-82
2023/06/25 11:50:20;;;;;;;72.07;10.27;;;33.60;1.00;;;;;;5060731;28;20438;-83
2023/06/25 11:52:46;;;;;;;73.43;9.20;;;33.20;1.00;;;;;;5078663;28;20766;-83
2023/06/25 11:55:11;;;;;;;71.80;6.80;;;32.90;1.00;;;;;;5079044;28;20398;-82
2023/06/25 11:57:38;;;;;;;71.20;6.80;;;33.00;1.00;;;;;;5060949;28;20180;-83
2023/06/25 12:00:05;;;;;;;71.10;6.20;;;33.00;1.00;;;;;;5078695;28;20168;-82
2023/06/25 12:02:30;;;;;;;71.60;7.10;;;33.10;1.00;;;;;;5078558;28;20395;-82
2023/06/25 12:04:56;;;;;;;72.20;7.47;;;32.80;1.00;;;;;;5061299;28;20425;-82
2023/06/25 12:07:22;;;;;;;72.47;8.77;;;32.70;1.00;;;;;;5078790;28;20278;-82
2023/06/25 12:09:48;;;;;;;71.47;8.60;;;32.90;1.00;;;;;;5078638;28;20554;-83
2023/06/25 12:12:13;;;;;;;72.17;10.07;;;33.10;1.00;;;;;;5060269;28;20164;-82
2023/06/25 12:14:39;;;;;;;71.77;8.90;;;33.00;1.00;;;;;;5060446;28;20163;-82
2023/06/25 12:17:07;;;;;;;71.00;8.50;;;33.20;1.00;;;;;;5078188;28;20218;-83
2023/06/25 12:19:33;;;;;;;73.63;10.40;;;33.50;1.00;;;;;;5077824;28;20164;-81
2023/06/25 12:21:59;;;;;;;73.17;7.30;;;33.50;1.00;;;;;;5075733;28;20430;-82
2023/06/25 12:24:25;;;;;;;71.77;6.93;;;33.70;1.00;;;;;;5057821;28;20172;-82
2023/06/25 12:26:50;;;;;;;71.07;8.03;;;33.90;1.00;;;;;;5075447;28;20271;-82
2023/06/25 12:29:16;;;;;;;70.83;6.43;;;34.20;1.00;;;;;;5057935;28;20168;-82
2023/06/25 12:31:42;;;;;;;72.30;7.00;;;34.30;1.00;;;;;;5075444;28;20167;-82
2023/06/25 12:34:07;;;;;;;72.00;6.83;;;34.10;1.00;;;;;;5076124;28;20643;-82
2023/06/25 12:36:33;;;;;;;71.70;5.27;;;34.20;1.00;;;;;;5076013;28;20197;-82